sensor_id;sensor_type;location;lat;lon;timestamp;P1;durP1;ratioP1;P2;durP2;ratioP2
39308;SDS011;26019;47.510;19.122;2022-12-18T00:03:00;68.07;;;27.23;;
39308;SDS011;26019;47.510;19.122;2022-12-18T00:13:04;67.05;;;28.35;;
39308;SDS011;26019;47.510;19.122;2022-12-18T00:23:11;62.80;;;25.70;;
39308;SDS011;26019;47.510;19.122;2022-12-18T00:33:16;64.20;;;27.23;;
39308;SDS011;26019;47.510;19.122;2022-12-18T00:43:19;64.22;;;27.63;;
39308;SDS011;26019;47.510;19.122;2022-12-18T00:53:20;61.95;;;27.02;;
39308;SDS011;26019;47.510;19.122;2022-12-18T01:03:22;69.38;;;29.55;;
39308;SDS011;26019;47.510;19.122;2022-12-18T01:13:24;62.50;;;26.88;;
39308;SDS011;26019;47.510;19.122;2022-12-18T01:23:27;58.10;;;25.30;;
39308;SDS011;26019;47.510;19.122;2022-12-18T01:33:31;61.77;;;27.57;;
39308;SDS011;26019;47.510;19.122;2022-12-18T01:54:10;69.22;;;27.00;;
39308;SDS011;26019;47.510;19.122;2022-12-18T02:35:48;58.33;;;27.00;;
39308;SDS011;26019;47.510;19.122;2022-12-18T02:45:58;62.05;;;27.48;;
39308;SDS011;26019;47.510;19.122;2022-12-18T03:06:31;65.57;;;28.25;;
39308;SDS011;26019;47.510;19.122;2022-12-18T03:16:36;64.43;;;28.58;;
39308;SDS011;26019;47.510;19.122;2022-12-18T03:26:40;70.13;;;28.27;;
39308;SDS011;26019;47.510;19.122;2022-12-18T03:36:48;73.65;;;30.58;;
39308;SDS011;26019;47.510;19.122;2022-12-18T03:57:23;67.43;;;28.80;;
39308;SDS011;26019;47.510;19.122;2022-12-18T04:07:28;76.55;;;31.88;;
39308;SDS011;26019;47.510;19.122;2022-12-18T04:17:32;72.35;;;30.70;;
39308;SDS011;26019;47.510;19.122;2022-12-18T04:27:40;71.45;;;29.63;;
39308;SDS011;26019;47.510;19.122;2022-12-18T04:37:42;68.40;;;28.80;;
39308;SDS011;26019;47.510;19.122;2022-12-18T04:47:50;69.35;;;28.35;;
39308;SDS011;26019;47.510;19.122;2022-12-18T04:57:59;71.18;;;27.40;;
39308;SDS011;26019;47.510;19.122;2022-12-18T05:08:02;68.50;;;29.77;;
39308;SDS011;26019;47.510;19.122;2022-12-18T05:38:22;69.22;;;30.00;;
39308;SDS011;26019;47.510;19.122;2022-12-18T05:48:25;74.68;;;30.25;;
39308;SDS011;26019;47.510;19.122;2022-12-18T05:58:29;69.50;;;31.98;;
39308;SDS011;26019;47.510;19.122;2022-12-18T06:18:35;74.03;;;31.85;;
39308;SDS011;26019;47.510;19.122;2022-12-18T06:28:38;74.75;;;31.33;;
39308;SDS011;26019;47.510;19.122;2022-12-18T06:38:41;68.25;;;29.38;;
39308;SDS011;26019;47.510;19.122;2022-12-18T06:48:48;82.38;;;35.47;;
39308;SDS011;26019;47.510;19.122;2022-12-18T06:58:52;80.00;;;33.42;;
39308;SDS011;26019;47.510;19.122;2022-12-18T07:08:54;79.47;;;30.53;;
39308;SDS011;26019;47.510;19.122;2022-12-18T07:18:56;71.75;;;32.83;;
39308;SDS011;26019;47.510;19.122;2022-12-18T07:29:01;77.63;;;32.17;;
39308;SDS011;26019;47.510;19.122;2022-12-18T07:39:10;64.30;;;28.27;;
39308;SDS011;26019;47.510;19.122;2022-12-18T07:49:12;71.00;;;30.40;;
39308;SDS011;26019;47.510;19.122;2022-12-18T07:59:18;59.63;;;27.70;;
39308;SDS011;26019;47.510;19.122;2022-12-18T08:09:21;65.95;;;29.15;;
39308;SDS011;26019;47.510;19.122;2022-12-18T08:19:28;64.93;;;29.27;;
39308;SDS011;26019;47.510;19.122;2022-12-18T08:29:30;64.93;;;29.02;;
39308;SDS011;26019;47.510;19.122;2022-12-18T08:39:36;63.50;;;29.13;;
39308;SDS011;26019;47.510;19.122;2022-12-18T08:49:39;63.15;;;29.95;;
39308;SDS011;26019;47.510;19.122;2022-12-18T08:59:42;58.08;;;28.35;;
39308;SDS011;26019;47.510;19.122;2022-12-18T09:19:48;54.60;;;26.40;;
39308;SDS011;26019;47.510;19.122;2022-12-18T09:29:51;49.50;;;23.90;;
39308;SDS011;26019;47.510;19.122;2022-12-18T09:39:53;50.17;;;25.17;;
39308;SDS011;26019;47.510;19.122;2022-12-18T09:49:59;45.65;;;25.48;;
39308;SDS011;26019;47.510;19.122;2022-12-18T10:00:18;51.15;;;28.58;;
39308;SDS011;26019;47.510;19.122;2022-12-18T10:20:44;43.95;;;25.90;;
39308;SDS011;26019;47.510;19.122;2022-12-18T10:30:49;49.90;;;27.35;;
39308;SDS011;26019;47.510;19.122;2022-12-18T10:50:58;43.72;;;26.98;;
39308;SDS011;26019;47.510;19.122;2022-12-18T11:21:31;40.20;;;24.98;;
39308;SDS011;26019;47.510;19.122;2022-12-18T11:31:44;43.03;;;26.00;;
39308;SDS011;26019;47.510;19.122;2022-12-18T11:41:50;40.25;;;24.15;;
39308;SDS011;26019;47.510;19.122;2022-12-18T12:12:49;38.43;;;25.20;;
39308;SDS011;26019;47.510;19.122;2022-12-18T12:43:45;37.15;;;18.77;;
39308;SDS011;26019;47.510;19.122;2022-12-18T12:53:52;41.13;;;21.63;;
39308;SDS011;26019;47.510;19.122;2022-12-18T13:14:12;36.40;;;18.23;;
39308;SDS011;26019;47.510;19.122;2022-12-18T13:24:24;39.63;;;20.40;;
39308;SDS011;26019;47.510;19.122;2022-12-18T13:34:29;44.17;;;23.70;;
39308;SDS011;26019;47.510;19.122;2022-12-18T13:44:37;42.45;;;20.30;;
39308;SDS011;26019;47.510;19.122;2022-12-18T13:54:46;48.17;;;23.23;;
39308;SDS011;26019;47.510;19.122;2022-12-18T14:04:52;47.50;;;23.80;;
39308;SDS011;26019;47.510;19.122;2022-12-18T14:14:55;48.60;;;26.33;;
39308;SDS011;26019;47.510;19.122;2022-12-18T14:35:15;60.78;;;30.48;;
39308;SDS011;26019;47.510;19.122;2022-12-18T14:45:38;60.65;;;26.98;;
39308;SDS011;26019;47.510;19.122;2022-12-18T14:55:47;61.58;;;27.58;;
39308;SDS011;26019;47.510;19.122;2022-12-18T15:05:52;63.63;;;28.45;;
39308;SDS011;26019;47.510;19.122;2022-12-18T15:15:56;69.80;;;33.37;;
39308;SDS011;26019;47.510;19.122;2022-12-18T15:26:09;67.22;;;30.02;;
39308;SDS011;26019;47.510;19.122;2022-12-18T15:36:15;70.78;;;32.35;;
39308;SDS011;26019;47.510;19.122;2022-12-18T15:46:27;70.80;;;32.13;;
39308;SDS011;26019;47.510;19.122;2022-12-18T15:56:36;73.07;;;34.03;;
39308;SDS011;26019;47.510;19.122;2022-12-18T16:06:57;72.47;;;34.17;;
39308;SDS011;26019;47.510;19.122;2022-12-18T16:17:21;70.80;;;33.60;;
39308;SDS011;26019;47.510;19.122;2022-12-18T16:27:31;76.40;;;35.20;;
39308;SDS011;26019;47.510;19.122;2022-12-18T16:37:43;80.00;;;35.22;;
39308;SDS011;26019;47.510;19.122;2022-12-18T16:47:46;85.50;;;37.30;;
39308;SDS011;26019;47.510;19.122;2022-12-18T16:57:50;87.63;;;39.13;;
39308;SDS011;26019;47.510;19.122;2022-12-18T17:08:01;86.22;;;40.08;;
39308;SDS011;26019;47.510;19.122;2022-12-18T17:18:04;89.03;;;42.03;;
39308;SDS011;26019;47.510;19.122;2022-12-18T17:28:08;84.18;;;38.55;;
39308;SDS011;26019;47.510;19.122;2022-12-18T17:38:14;96.40;;;42.22;;
39308;SDS011;26019;47.510;19.122;2022-12-18T17:48:20;87.93;;;40.63;;
39308;SDS011;26019;47.510;19.122;2022-12-18T17:58:24;89.70;;;39.72;;
39308;SDS011;26019;47.510;19.122;2022-12-18T18:18:34;90.75;;;41.22;;
39308;SDS011;26019;47.510;19.122;2022-12-18T18:28:38;104.80;;;45.63;;
39308;SDS011;26019;47.510;19.122;2022-12-18T18:38:42;96.95;;;43.85;;
39308;SDS011;26019;47.510;19.122;2022-12-18T18:48:49;96.97;;;42.70;;
39308;SDS011;26019;47.510;19.122;2022-12-18T19:09:00;99.00;;;45.38;;
39308;SDS011;26019;47.510;19.122;2022-12-18T19:19:03;107.93;;;47.78;;
39308;SDS011;26019;47.510;19.122;2022-12-18T19:29:07;117.13;;;49.95;;
39308;SDS011;26019;47.510;19.122;2022-12-18T19:39:17;110.95;;;49.38;;
39308;SDS011;26019;47.510;19.122;2022-12-18T19:49:20;121.80;;;54.80;;
39308;SDS011;26019;47.510;19.122;2022-12-18T19:59:22;122.07;;;55.25;;
39308;SDS011;26019;47.510;19.122;2022-12-18T20:09:25;132.00;;;61.10;;
39308;SDS011;26019;47.510;19.122;2022-12-18T20:19:29;134.47;;;62.80;;
39308;SDS011;26019;47.510;19.122;2022-12-18T20:29:35;158.50;;;68.30;;
39308;SDS011;26019;47.510;19.122;2022-12-18T20:39:39;161.30;;;72.55;;
39308;SDS011;26019;47.510;19.122;2022-12-18T20:49:48;165.27;;;74.28;;
39308;SDS011;26019;47.510;19.122;2022-12-18T20:59:56;155.38;;;75.40;;
39308;SDS011;26019;47.510;19.122;2022-12-18T21:20:00;1043.05;;;141.32;;
39308;SDS011;26019;47.510;19.122;2022-12-18T21:30:05;154.20;;;72.03;;
39308;SDS011;26019;47.510;19.122;2022-12-18T21:40:07;157.68;;;72.20;;
39308;SDS011;26019;47.510;19.122;2022-12-18T21:50:12;155.43;;;71.05;;
39308;SDS011;26019;47.510;19.122;2022-12-18T22:00:14;165.43;;;73.35;;
39308;SDS011;26019;47.510;19.122;2022-12-18T22:10:19;165.75;;;77.03;;
39308;SDS011;26019;47.510;19.122;2022-12-18T22:20:24;146.52;;;69.82;;
39308;SDS011;26019;47.510;19.122;2022-12-18T22:30:26;148.00;;;63.50;;
39308;SDS011;26019;47.510;19.122;2022-12-18T22:40:29;118.53;;;58.53;;
39308;SDS011;26019;47.510;19.122;2022-12-18T22:50:31;133.57;;;54.70;;
39308;SDS011;26019;47.510;19.122;2022-12-18T23:00:35;125.60;;;47.55;;
39308;SDS011;26019;47.510;19.122;2022-12-18T23:10:38;125.65;;;50.97;;
39308;SDS011;26019;47.510;19.122;2022-12-18T23:20:42;137.20;;;57.20;;
39308;SDS011;26019;47.510;19.122;2022-12-18T23:30:44;116.72;;;50.97;;
39308;SDS011;26019;47.510;19.122;2022-12-18T23:40:46;133.75;;;53.42;;
39308;SDS011;26019;47.510;19.122;2022-12-18T23:50:49;124.72;;;48.75;;
